sensor_id;sensor_type;location;lat;lon;timestamp;pressure;altitude;pressure_sealevel;temperature;humidity
60725;BME280;59881;36.722;-4.462;2022-10-14T00:01:48;101707.25;;;18.65;73.49
60725;BME280;59881;36.722;-4.462;2022-10-14T00:04:13;101144.19;;;15.24;72.79
60725;BME280;59881;36.722;-4.462;2022-10-14T00:06:39;101274.28;;;15.91;72.38
60725;BME280;59881;36.722;-4.462;2022-10-14T00:09:07;101702.56;;;17.93;72.59
60725;BME280;59881;36.722;-4.462;2022-10-14T00:11:35;101694.94;;;18.53;72.14
60725;BME280;59881;36.722;-4.462;2022-10-14T00:14:12;101825.84;;;18.51;72.04
60725;BME280;59881;36.722;-4.462;2022-10-14T00:16:40;101665.16;;;18.27;71.58
60725;BME280;59881;36.722;-4.462;2022-10-14T00:19:06;101657.88;;;18.17;71.24
60725;BME280;59881;36.722;-4.462;2022-10-14T00:21:33;101667.66;;;18.28;71.03
60725;BME280;59881;36.722;-4.462;2022-10-14T00:24:00;101720.44;;;18.46;70.56
60725;BME280;59881;36.722;-4.462;2022-10-14T00:26:32;101701.06;;;18.44;70.70
60725;BME280;59881;36.722;-4.462;2022-10-14T00:28:59;101321.47;;;16.22;70.38
60725;BME280;59881;36.722;-4.462;2022-10-14T00:31:25;101693.66;;;18.47;70.78
60725;BME280;59881;36.722;-4.462;2022-10-14T00:33:51;101559.81;;;17.68;70.47
60725;BME280;59881;36.722;-4.462;2022-10-14T00:36:19;101637.81;;;18.13;70.53
60725;BME280;59881;36.722;-4.462;2022-10-14T00:38:45;101663.31;;;18.27;70.25
60725;BME280;59881;36.722;-4.462;2022-10-14T00:41:14;101712.44;;;18.46;69.85
60725;BME280;59881;36.722;-4.462;2022-10-14T00:46:32;101697.94;;;18.38;69.69
60725;BME280;59881;36.722;-4.462;2022-10-14T00:49:04;101657.38;;;18.24;69.56
60725;BME280;59881;36.722;-4.462;2022-10-14T00:51:32;101565.75;;;17.71;69.27
60725;BME280;59881;36.722;-4.462;2022-10-14T00:53:59;101653.59;;;18.26;69.88
60725;BME280;59881;36.722;-4.462;2022-10-14T00:56:27;101619.78;;;18.06;69.03
60725;BME280;59881;36.722;-4.462;2022-10-14T00:58:54;101652.81;;;18.14;69.00
60725;BME280;59881;36.722;-4.462;2022-10-14T01:01:20;101492.44;;;17.12;68.92
60725;BME280;59881;36.722;-4.462;2022-10-14T01:03:46;101686.09;;;18.31;69.17
60725;BME280;59881;36.722;-4.462;2022-10-14T01:06:25;101686.22;;;18.30;69.35
60725;BME280;59881;36.722;-4.462;2022-10-14T01:11:37;101684.66;;;18.27;69.80
60725;BME280;59881;36.722;-4.462;2022-10-14T01:14:29;101682.09;;;18.26;70.00
60725;BME280;59881;36.722;-4.462;2022-10-14T01:19:58;101669.59;;;18.26;70.78
60725;BME280;59881;36.722;-4.462;2022-10-14T01:22:37;101790.63;;;18.25;70.92
60725;BME280;59881;36.722;-4.462;2022-10-14T01:28:18;101673.25;;;18.25;71.90
60725;BME280;59881;36.722;-4.462;2022-10-14T01:30:49;101738.22;;;18.24;72.27
60725;BME280;59881;36.722;-4.462;2022-10-14T01:33:25;101670.72;;;18.24;71.99
60725;BME280;59881;36.722;-4.462;2022-10-14T01:36:27;101673.25;;;18.25;72.31
60725;BME280;59881;36.722;-4.462;2022-10-14T01:38:59;101676.66;;;18.27;72.23
60725;BME280;59881;36.722;-4.462;2022-10-14T01:41:32;101609.75;;;17.54;72.27
60725;BME280;59881;36.722;-4.462;2022-10-14T01:44:06;101579.41;;;17.78;72.19
60725;BME280;59881;36.722;-4.462;2022-10-14T01:46:34;101663.31;;;18.27;72.48
60725;BME280;59881;36.722;-4.462;2022-10-14T01:49:14;101666.09;;;18.26;72.13
60725;BME280;59881;36.722;-4.462;2022-10-14T01:51:47;101266.94;;;15.84;71.86
60725;BME280;59881;36.722;-4.462;2022-10-14T01:54:27;101750.28;;;18.18;71.66
60725;BME280;59881;36.722;-4.462;2022-10-14T01:56:55;101626.97;;;17.94;71.86
60725;BME280;59881;36.722;-4.462;2022-10-14T01:59:24;101304.00;;;15.97;71.85
60725;BME280;59881;36.722;-4.462;2022-10-14T02:01:50;101202.94;;;15.30;71.53
60725;BME280;59881;36.722;-4.462;2022-10-14T02:04:20;101652.03;;;18.03;71.82
60725;BME280;59881;36.722;-4.462;2022-10-14T02:20:46;101629.16;;;17.77;72.45
60725;BME280;59881;36.722;-4.462;2022-10-14T02:23:17;101591.94;;;17.55;72.34
60725;BME280;59881;36.722;-4.462;2022-10-14T02:25:45;101798.31;;;17.73;72.38
60725;BME280;59881;36.722;-4.462;2022-10-14T02:28:15;101473.59;;;16.70;72.18
60725;BME280;59881;36.722;-4.462;2022-10-14T02:30:47;101560.19;;;17.20;71.83
60725;BME280;59881;36.722;-4.462;2022-10-14T02:33:14;101585.78;;;17.54;72.01
60725;BME280;59881;36.722;-4.462;2022-10-14T02:35:40;101604.38;;;17.66;71.90
60725;BME280;59881;36.722;-4.462;2022-10-14T02:38:08;101694.13;;;17.65;71.82
60725;BME280;59881;36.722;-4.462;2022-10-14T02:40:48;101591.06;;;17.66;71.74
60725;BME280;59881;36.722;-4.462;2022-10-14T02:43:14;101190.75;;;15.17;71.38
60725;BME280;59881;36.722;-4.462;2022-10-14T02:45:42;101601.00;;;17.64;71.47
60725;BME280;59881;36.722;-4.462;2022-10-14T02:48:09;101603.09;;;17.60;71.44
60725;BME280;59881;36.722;-4.462;2022-10-14T02:50:34;101583.88;;;17.45;71.41
60725;BME280;59881;36.722;-4.462;2022-10-14T02:53:00;101602.56;;;17.66;71.40
60725;BME280;59881;36.722;-4.462;2022-10-14T02:55:26;101165.41;;;15.01;71.07
60725;BME280;59881;36.722;-4.462;2022-10-14T02:57:51;101697.66;;;17.66;70.86
60725;BME280;59881;36.722;-4.462;2022-10-14T03:00:17;101597.59;;;17.62;70.70
60725;BME280;59881;36.722;-4.462;2022-10-14T03:02:43;101694.75;;;17.57;70.71
60725;BME280;59881;36.722;-4.462;2022-10-14T03:05:09;101588.31;;;17.56;70.40
60725;BME280;59881;36.722;-4.462;2022-10-14T03:07:35;101588.44;;;17.54;70.24
60725;BME280;59881;36.722;-4.462;2022-10-14T03:10:01;101639.59;;;17.14;70.29
60725;BME280;59881;36.722;-4.462;2022-10-14T03:12:27;101594.75;;;17.53;70.17
60725;BME280;59881;36.722;-4.462;2022-10-14T03:14:53;101556.53;;;17.32;69.97
60725;BME280;59881;36.722;-4.462;2022-10-14T03:17:18;101061.94;;;14.32;69.73
60725;BME280;59881;36.722;-4.462;2022-10-14T03:19:44;101573.66;;;17.50;69.98
60725;BME280;59881;36.722;-4.462;2022-10-14T03:22:10;101580.09;;;17.48;69.76
60725;BME280;59881;36.722;-4.462;2022-10-14T03:24:35;101573.22;;;17.45;69.59
60725;BME280;59881;36.722;-4.462;2022-10-14T03:27:01;101466.34;;;16.72;69.62
60725;BME280;59881;36.722;-4.462;2022-10-14T03:29:26;101515.31;;;17.04;69.74
60725;BME280;59881;36.722;-4.462;2022-10-14T03:31:52;101067.97;;;14.34;69.44
60725;BME280;59881;36.722;-4.462;2022-10-14T03:34:17;101571.03;;;17.39;69.97
60725;BME280;59881;36.722;-4.462;2022-10-14T03:36:43;101569.22;;;17.40;70.03
60725;BME280;59881;36.722;-4.462;2022-10-14T03:39:09;101569.34;;;17.38;70.02
60725;BME280;59881;36.722;-4.462;2022-10-14T03:41:35;101560.75;;;17.34;70.14
60725;BME280;59881;36.722;-4.462;2022-10-14T03:44:01;101455.97;;;16.69;70.08
60725;BME280;59881;36.722;-4.462;2022-10-14T03:46:26;101478.69;;;16.85;69.97
60725;BME280;59881;36.722;-4.462;2022-10-14T03:48:52;101550.47;;;17.30;70.29
60725;BME280;59881;36.722;-4.462;2022-10-14T03:51:17;101537.66;;;17.24;70.40
60725;BME280;59881;36.722;-4.462;2022-10-14T03:53:43;101483.06;;;16.86;70.47
60725;BME280;59881;36.722;-4.462;2022-10-14T03:56:09;101555.94;;;17.28;70.49
60725;BME280;59881;36.722;-4.462;2022-10-14T03:58:34;101523.78;;;17.09;70.64
60725;BME280;59881;36.722;-4.462;2022-10-14T04:01:00;101503.72;;;17.05;70.72
60725;BME280;59881;36.722;-4.462;2022-10-14T04:03:25;101177.94;;;15.10;70.10
60725;BME280;59881;36.722;-4.462;2022-10-14T04:05:51;101513.34;;;17.17;70.20
60725;BME280;59881;36.722;-4.462;2022-10-14T04:08:16;101621.66;;;17.39;70.24
60725;BME280;59881;36.722;-4.462;2022-10-14T04:10:42;101454.03;;;16.83;69.70
60725;BME280;59881;36.722;-4.462;2022-10-14T04:13:07;101006.84;;;14.02;69.50
60725;BME280;59881;36.722;-4.462;2022-10-14T04:15:34;101547.09;;;17.28;69.83
60725;BME280;59881;36.722;-4.462;2022-10-14T04:18:00;101487.03;;;16.91;69.87
60725;BME280;59881;36.722;-4.462;2022-10-14T04:20:26;101520.75;;;17.02;69.89
60725;BME280;59881;36.722;-4.462;2022-10-14T04:22:51;101539.38;;;17.13;69.75
60725;BME280;59881;36.722;-4.462;2022-10-14T04:25:17;101365.22;;;15.95;69.63
60725;BME280;59881;36.722;-4.462;2022-10-14T04:27:42;101311.34;;;15.70;69.46
60725;BME280;59881;36.722;-4.462;2022-10-14T04:30:08;101771.13;;;17.12;69.50
60725;BME280;59881;36.722;-4.462;2022-10-14T04:32:34;100847.13;;;12.84;69.39
60725;BME280;59881;36.722;-4.462;2022-10-14T04:35:00;101180.28;;;14.68;69.76
60725;BME280;59881;36.722;-4.462;2022-10-14T04:37:26;101361.59;;;15.96;69.71
60725;BME280;59881;36.722;-4.462;2022-10-14T04:39:53;101558.88;;;17.14;69.92
60725;BME280;59881;36.722;-4.462;2022-10-14T04:42:18;101523.22;;;16.94;69.79
60725;BME280;59881;36.722;-4.462;2022-10-14T04:44:44;101548.72;;;17.08;69.81
60725;BME280;59881;36.722;-4.462;2022-10-14T04:47:10;101511.94;;;16.90;70.08
60725;BME280;59881;36.722;-4.462;2022-10-14T04:49:35;101554.38;;;17.14;69.98
60725;BME280;59881;36.722;-4.462;2022-10-14T04:52:01;101470.84;;;16.72;69.95
60725;BME280;59881;36.722;-4.462;2022-10-14T04:54:26;101544.81;;;16.78;69.77
60725;BME280;59881;36.722;-4.462;2022-10-14T04:56:52;101153.53;;;14.72;69.64
60725;BME280;59881;36.722;-4.462;2022-10-14T04:59:17;101200.03;;;15.11;69.35
60725;BME280;59881;36.722;-4.462;2022-10-14T05:01:43;101545.19;;;17.19;69.35
60725;BME280;59881;36.722;-4.462;2022-10-14T05:04:08;101159.34;;;14.77;69.15
60725;BME280;59881;36.722;-4.462;2022-10-14T05:06:34;101635.00;;;16.94;69.32
60725;BME280;59881;36.722;-4.462;2022-10-14T05:09:02;101508.56;;;16.88;69.75
60725;BME280;59881;36.722;-4.462;2022-10-14T05:11:27;101539.16;;;17.05;69.75
60725;BME280;59881;36.722;-4.462;2022-10-14T05:13:53;101545.44;;;17.04;69.84
60725;BME280;59881;36.722;-4.462;2022-10-14T05:16:18;101493.41;;;16.77;69.86
60725;BME280;59881;36.722;-4.462;2022-10-14T05:18:44;101533.34;;;17.00;69.80
60725;BME280;59881;36.722;-4.462;2022-10-14T05:21:09;101544.13;;;16.99;69.87
60725;BME280;59881;36.722;-4.462;2022-10-14T05:23:35;101479.56;;;16.63;69.96
60725;BME280;59881;36.722;-4.462;2022-10-14T05:26:01;101505.44;;;16.83;69.99
60725;BME280;59881;36.722;-4.462;2022-10-14T05:28:27;101530.94;;;16.97;70.16
60725;BME280;59881;36.722;-4.462;2022-10-14T05:30:52;101479.91;;;16.69;70.29
60725;BME280;59881;36.722;-4.462;2022-10-14T05:33:18;101426.84;;;16.34;70.14
60725;BME280;59881;36.722;-4.462;2022-10-14T05:35:43;101103.06;;;14.38;70.19
60725;BME280;59881;36.722;-4.462;2022-10-14T05:38:09;101464.66;;;16.38;70.31
60725;BME280;59881;36.722;-4.462;2022-10-14T05:40:36;101156.31;;;14.70;69.94
60725;BME280;59881;36.722;-4.462;2022-10-14T05:43:02;101478.19;;;16.68;70.10
60725;BME280;59881;36.722;-4.462;2022-10-14T05:45:28;101392.41;;;16.21;70.09
60725;BME280;59881;36.722;-4.462;2022-10-14T05:47:54;101657.72;;;16.87;69.94
60725;BME280;59881;36.722;-4.462;2022-10-14T05:50:19;101531.28;;;17.04;69.87
60725;BME280;59881;36.722;-4.462;2022-10-14T05:52:46;101363.41;;;16.07;69.84
60725;BME280;59881;36.722;-4.462;2022-10-14T05:55:12;101395.44;;;16.28;69.92
60725;BME280;59881;36.722;-4.462;2022-10-14T05:57:38;101040.50;;;14.13;69.41
60725;BME280;59881;36.722;-4.462;2022-10-14T06:00:04;101498.38;;;16.93;69.67
60725;BME280;59881;36.722;-4.462;2022-10-14T06:02:31;101525.34;;;17.11;69.47
60725;BME280;59881;36.722;-4.462;2022-10-14T06:04:56;101620.22;;;17.12;69.57
60725;BME280;59881;36.722;-4.462;2022-10-14T06:07:22;101508.13;;;17.15;69.74
60725;BME280;59881;36.722;-4.462;2022-10-14T06:09:48;101115.94;;;14.78;69.38
60725;BME280;59881;36.722;-4.462;2022-10-14T06:12:13;101479.06;;;16.91;69.55
60725;BME280;59881;36.722;-4.462;2022-10-14T06:14:39;101159.09;;;14.44;69.32
60725;BME280;59881;36.722;-4.462;2022-10-14T06:17:05;101003.84;;;14.06;69.31
60725;BME280;59881;36.722;-4.462;2022-10-14T06:19:31;101443.97;;;16.64;69.35
60725;BME280;59881;36.722;-4.462;2022-10-14T06:21:57;101507.31;;;17.15;69.24
60725;BME280;59881;36.722;-4.462;2022-10-14T06:24:23;101513.22;;;17.19;69.09
60725;BME280;59881;36.722;-4.462;2022-10-14T06:26:48;101516.47;;;17.22;68.79
60725;BME280;59881;36.722;-4.462;2022-10-14T06:29:15;101519.47;;;17.29;68.25
60725;BME280;59881;36.722;-4.462;2022-10-14T06:31:40;101046.22;;;14.53;67.97
60725;BME280;59881;36.722;-4.462;2022-10-14T06:34:06;101454.66;;;17.19;67.88
60725;BME280;59881;36.722;-4.462;2022-10-14T06:36:32;101121.00;;;15.37;67.60
60725;BME280;59881;36.722;-4.462;2022-10-14T06:38:57;101506.94;;;18.05;66.98
60725;BME280;59881;36.722;-4.462;2022-10-14T06:41:23;101195.50;;;16.02;65.86
60725;BME280;59881;36.722;-4.462;2022-10-14T06:43:49;101510.28;;;18.90;64.67
60725;BME280;59881;36.722;-4.462;2022-10-14T06:46:14;101504.13;;;18.99;62.97
60725;BME280;59881;36.722;-4.462;2022-10-14T06:48:40;101511.94;;;19.90;61.04
60725;BME280;59881;36.722;-4.462;2022-10-14T06:51:05;101497.56;;;20.47;59.34
60725;BME280;59881;36.722;-4.462;2022-10-14T06:53:31;101412.75;;;20.58;57.61
60725;BME280;59881;36.722;-4.462;2022-10-14T06:56:04;101319.47;;;20.53;55.54
60725;BME280;59881;36.722;-4.462;2022-10-14T06:58:30;101428.72;;;21.75;54.09
60725;BME280;59881;36.722;-4.462;2022-10-14T07:01:07;101458.19;;;22.53;52.36
60725;BME280;59881;36.722;-4.462;2022-10-14T07:03:34;101517.91;;;23.41;50.50
60725;BME280;59881;36.722;-4.462;2022-10-14T07:06:05;101486.94;;;24.10;48.84
60725;BME280;59881;36.722;-4.462;2022-10-14T07:08:31;101425.69;;;24.21;47.05
60725;BME280;59881;36.722;-4.462;2022-10-14T07:10:57;101365.09;;;24.25;45.27
60725;BME280;59881;36.722;-4.462;2022-10-14T07:13:22;101109.03;;;23.42;43.52
60725;BME280;59881;36.722;-4.462;2022-10-14T07:15:48;101576.47;;;26.16;42.48
60725;BME280;59881;36.722;-4.462;2022-10-14T07:18:14;101503.59;;;26.61;41.59
60725;BME280;59881;36.722;-4.462;2022-10-14T07:20:40;101477.56;;;27.11;40.39
60725;BME280;59881;36.722;-4.462;2022-10-14T07:23:06;101233.16;;;25.98;39.21
60725;BME280;59881;36.722;-4.462;2022-10-14T07:25:31;101153.41;;;26.45;37.52
60725;BME280;59881;36.722;-4.462;2022-10-14T07:27:57;101524.03;;;29.32;36.32
60725;BME280;59881;36.722;-4.462;2022-10-14T07:30:23;101039.09;;;27.21;34.88
60725;BME280;59881;36.722;-4.462;2022-10-14T07:32:49;101042.53;;;27.83;34.10
60725;BME280;59881;36.722;-4.462;2022-10-14T07:35:15;101457.91;;;30.97;32.61
60725;BME280;59881;36.722;-4.462;2022-10-14T07:37:41;101210.09;;;29.84;31.75
60725;BME280;59881;36.722;-4.462;2022-10-14T07:40:07;101516.03;;;32.16;31.48
60725;BME280;59881;36.722;-4.462;2022-10-14T07:42:34;101418.94;;;31.96;30.15
60725;BME280;59881;36.722;-4.462;2022-10-14T07:44:59;101498.69;;;32.47;30.07
60725;BME280;59881;36.722;-4.462;2022-10-14T07:47:25;101562.50;;;32.65;29.90
60725;BME280;59881;36.722;-4.462;2022-10-14T07:49:50;101536.44;;;33.17;29.65
60725;BME280;59881;36.722;-4.462;2022-10-14T07:52:16;101310.78;;;31.97;28.90
60725;BME280;59881;36.722;-4.462;2022-10-14T07:54:44;101546.00;;;34.16;28.03
60725;BME280;59881;36.722;-4.462;2022-10-14T07:57:10;101446.41;;;33.88;27.31
60725;BME280;59881;36.722;-4.462;2022-10-14T07:59:38;101510.22;;;34.17;26.89
60725;BME280;59881;36.722;-4.462;2022-10-14T08:02:03;101454.59;;;34.12;27.07
60725;BME280;59881;36.722;-4.462;2022-10-14T08:04:29;101535.34;;;34.78;26.76
60725;BME280;59881;36.722;-4.462;2022-10-14T08:06:54;101510.69;;;35.07;26.20
60725;BME280;59881;36.722;-4.462;2022-10-14T08:09:20;101376.78;;;34.60;25.69
60725;BME280;59881;36.722;-4.462;2022-10-14T08:11:46;101551.41;;;36.34;24.95
60725;BME280;59881;36.722;-4.462;2022-10-14T08:14:12;101551.91;;;36.53;24.26
60725;BME280;59881;36.722;-4.462;2022-10-14T08:16:38;101555.47;;;36.53;24.78
60725;BME280;59881;36.722;-4.462;2022-10-14T08:19:07;101498.63;;;36.49;24.47
60725;BME280;59881;36.722;-4.462;2022-10-14T08:21:33;101589.19;;;37.42;23.87
60725;BME280;59881;36.722;-4.462;2022-10-14T08:23:58;101575.63;;;37.95;23.46
60725;BME280;59881;36.722;-4.462;2022-10-14T08:26:32;101517.69;;;38.06;22.75
60725;BME280;59881;36.722;-4.462;2022-10-14T08:29:00;101210.91;;;36.30;22.42
60725;BME280;59881;36.722;-4.462;2022-10-14T08:31:27;101572.25;;;38.78;21.74
60725;BME280;59881;36.722;-4.462;2022-10-14T08:33:53;101511.03;;;38.50;21.99
60725;BME280;59881;36.722;-4.462;2022-10-14T08:36:20;101576.22;;;39.13;21.84
60725;BME280;59881;36.722;-4.462;2022-10-14T08:38:47;101400.34;;;38.38;21.76
60725;BME280;59881;36.722;-4.462;2022-10-14T08:44:10;101476.94;;;40.00;20.52
60725;BME280;59881;36.722;-4.462;2022-10-14T08:46:45;101579.72;;;40.57;20.53
60725;BME280;59881;36.722;-4.462;2022-10-14T08:49:16;101575.25;;;40.71;20.00
60725;BME280;59881;36.722;-4.462;2022-10-14T08:51:49;101402.28;;;39.65;20.43
60725;BME280;59881;36.722;-4.462;2022-10-14T08:54:26;101257.19;;;39.04;20.16
60725;BME280;59881;36.722;-4.462;2022-10-14T08:56:54;101502.25;;;41.22;19.30
60725;BME280;59881;36.722;-4.462;2022-10-14T08:59:21;101551.59;;;41.73;19.26
60725;BME280;59881;36.722;-4.462;2022-10-14T09:01:59;101561.94;;;42.45;18.63
60725;BME280;59881;36.722;-4.462;2022-10-14T09:04:26;101494.63;;;42.20;18.43
60725;BME280;59881;36.722;-4.462;2022-10-14T09:06:53;101611.16;;;42.48;18.92
60725;BME280;59881;36.722;-4.462;2022-10-14T09:09:27;101590.69;;;42.68;19.46
60725;BME280;59881;36.722;-4.462;2022-10-14T09:12:00;101571.34;;;42.44;19.22
60725;BME280;59881;36.722;-4.462;2022-10-14T09:14:34;101560.56;;;42.18;20.01
60725;BME280;59881;36.722;-4.462;2022-10-14T09:17:22;101582.34;;;42.49;19.73
60725;BME280;59881;36.722;-4.462;2022-10-14T09:22:29;101621.34;;;43.71;19.46
60725;BME280;59881;36.722;-4.462;2022-10-14T09:24:56;101573.72;;;44.25;18.70
60725;BME280;59881;36.722;-4.462;2022-10-14T09:27:22;101506.75;;;44.54;18.12
60725;BME280;59881;36.722;-4.462;2022-10-14T09:29:58;101574.53;;;45.39;17.58
60725;BME280;59881;36.722;-4.462;2022-10-14T09:34:57;101331.81;;;43.90;17.15
60725;BME280;59881;36.722;-4.462;2022-10-14T09:40:40;101564.94;;;45.09;17.84
60725;BME280;59881;36.722;-4.462;2022-10-14T09:51:01;101490.59;;;46.26;16.63
60725;BME280;59881;36.722;-4.462;2022-10-14T09:53:37;101543.13;;;46.76;16.08
60725;BME280;59881;36.722;-4.462;2022-10-14T09:56:06;101531.31;;;47.23;16.17
60725;BME280;59881;36.722;-4.462;2022-10-14T09:58:35;101550.91;;;48.59;15.54
60725;BME280;59881;36.722;-4.462;2022-10-14T10:01:04;101296.47;;;47.59;14.50
60725;BME280;59881;36.722;-4.462;2022-10-14T10:03:34;101552.63;;;48.73;14.92
60725;BME280;59881;36.722;-4.462;2022-10-14T10:06:05;101542.06;;;49.33;14.80
60725;BME280;59881;36.722;-4.462;2022-10-14T10:08:32;101550.50;;;51.24;13.02
60725;BME280;59881;36.722;-4.462;2022-10-14T10:11:08;101540.31;;;52.31;12.99
60725;BME280;59881;36.722;-4.462;2022-10-14T10:13:41;101522.09;;;53.03;12.23
60725;BME280;59881;36.722;-4.462;2022-10-14T10:16:36;101524.03;;;53.91;11.16
60725;BME280;59881;36.722;-4.462;2022-10-14T10:21:51;101503.78;;;55.54;10.55
60725;BME280;59881;36.722;-4.462;2022-10-14T10:24:19;101509.72;;;55.97;10.21
60725;BME280;59881;36.722;-4.462;2022-10-14T10:26:46;101509.19;;;56.54;9.57
60725;BME280;59881;36.722;-4.462;2022-10-14T10:29:23;101486.25;;;55.34;10.30
60725;BME280;59881;36.722;-4.462;2022-10-14T10:31:55;101519.69;;;53.01;11.87
60725;BME280;59881;36.722;-4.462;2022-10-14T10:37:21;101485.81;;;47.31;15.55
60725;BME280;59881;36.722;-4.462;2022-10-14T10:48:44;101533.03;;;29.53;37.50
60725;BME280;59881;36.722;-4.462;2022-10-14T10:51:34;101552.66;;;28.17;40.93
60725;BME280;59881;36.722;-4.462;2022-10-14T10:54:08;101474.81;;;26.90;43.75
60725;BME280;59881;36.722;-4.462;2022-10-14T10:56:53;101485.97;;;26.35;44.95
60725;BME280;59881;36.722;-4.462;2022-10-14T11:02:20;101555.72;;;26.02;47.56
60725;BME280;59881;36.722;-4.462;2022-10-14T11:05:12;101191.88;;;23.47;49.29
60725;BME280;59881;36.722;-4.462;2022-10-14T11:07:49;101540.13;;;25.43;50.82
60725;BME280;59881;36.722;-4.462;2022-10-14T11:13:47;101444.78;;;24.42;52.76
60725;BME280;59881;36.722;-4.462;2022-10-14T11:16:26;101109.00;;;22.22;53.11
60725;BME280;59881;36.722;-4.462;2022-10-14T11:24:40;101512.88;;;25.07;52.56
60725;BME280;59881;36.722;-4.462;2022-10-14T11:33:30;101507.59;;;24.82;54.14
60725;BME280;59881;36.722;-4.462;2022-10-14T11:41:33;101500.09;;;24.69;54.35
60725;BME280;59881;36.722;-4.462;2022-10-14T11:44:36;101487.84;;;24.58;54.28
60725;BME280;59881;36.722;-4.462;2022-10-14T11:49:47;101467.50;;;24.40;55.42
60725;BME280;59881;36.722;-4.462;2022-10-14T11:52:22;101328.50;;;23.43;55.97
60725;BME280;59881;36.722;-4.462;2022-10-14T11:55:17;101449.91;;;24.29;54.65
60725;BME280;59881;36.722;-4.462;2022-10-14T11:58:01;101515.28;;;24.62;54.32
60725;BME280;59881;36.722;-4.462;2022-10-14T12:00:30;101274.28;;;23.07;54.80
60725;BME280;59881;36.722;-4.462;2022-10-14T12:08:08;101450.16;;;24.50;54.76
60725;BME280;59881;36.722;-4.462;2022-10-14T12:11:27;101158.16;;;22.23;54.92
60725;BME280;59881;36.722;-4.462;2022-10-14T12:13:41;101377.31;;;23.96;55.53
60725;BME280;59881;36.722;-4.462;2022-10-14T12:16:13;101523.28;;;24.23;55.49
60725;BME280;59881;36.722;-4.462;2022-10-14T12:18:40;101395.09;;;24.13;55.42
60725;BME280;59881;36.722;-4.462;2022-10-14T12:23:45;101409.28;;;24.38;55.45
60725;BME280;59881;36.722;-4.462;2022-10-14T12:28:44;101362.94;;;24.20;55.09
60725;BME280;59881;36.722;-4.462;2022-10-14T12:31:37;101401.03;;;24.40;55.07
60725;BME280;59881;36.722;-4.462;2022-10-14T12:36:35;101366.06;;;23.92;56.27
60725;BME280;59881;36.722;-4.462;2022-10-14T12:41:49;101387.31;;;24.19;55.66
60725;BME280;59881;36.722;-4.462;2022-10-14T12:44:20;101389.22;;;24.10;55.71
60725;BME280;59881;36.722;-4.462;2022-10-14T12:46:49;101383.84;;;24.02;55.80
60725;BME280;59881;36.722;-4.462;2022-10-14T12:49:31;101149.38;;;22.04;56.39
60725;BME280;59881;36.722;-4.462;2022-10-14T12:52:02;101360.09;;;23.33;56.62
60725;BME280;59881;36.722;-4.462;2022-10-14T12:54:29;101374.13;;;23.92;56.58
60725;BME280;59881;36.722;-4.462;2022-10-14T12:57:35;101375.34;;;23.82;56.06
60725;BME280;59881;36.722;-4.462;2022-10-14T13:00:04;101381.72;;;23.72;55.85
60725;BME280;59881;36.722;-4.462;2022-10-14T13:02:35;101361.91;;;23.73;56.31
60725;BME280;59881;36.722;-4.462;2022-10-14T13:05:06;101279.81;;;23.30;56.85
60725;BME280;59881;36.722;-4.462;2022-10-14T13:07:44;101366.28;;;23.83;56.49
60725;BME280;59881;36.722;-4.462;2022-10-14T13:16:08;101350.09;;;23.74;56.78
60725;BME280;59881;36.722;-4.462;2022-10-14T13:21:04;101273.38;;;23.47;56.36
60725;BME280;59881;36.722;-4.462;2022-10-14T13:23:35;101333.97;;;23.66;56.07
60725;BME280;59881;36.722;-4.462;2022-10-14T13:26:26;100827.50;;;20.49;56.67
60725;BME280;59881;36.722;-4.462;2022-10-14T13:37:00;101327.31;;;23.46;57.46
60725;BME280;59881;36.722;-4.462;2022-10-14T13:39:26;101397.91;;;23.40;57.60
60725;BME280;59881;36.722;-4.462;2022-10-14T13:41:52;100845.34;;;20.32;58.25
60725;BME280;59881;36.722;-4.462;2022-10-14T13:44:18;101393.69;;;23.29;58.74
60725;BME280;59881;36.722;-4.462;2022-10-14T13:46:48;101270.44;;;23.01;59.34
60725;BME280;59881;36.722;-4.462;2022-10-14T13:49:16;101307.19;;;23.33;59.16
60725;BME280;59881;36.722;-4.462;2022-10-14T13:52:02;101272.25;;;23.09;58.57
60725;BME280;59881;36.722;-4.462;2022-10-14T13:54:31;101302.97;;;23.39;59.34
60725;BME280;59881;36.722;-4.462;2022-10-14T13:57:06;101309.53;;;23.45;59.26
60725;BME280;59881;36.722;-4.462;2022-10-14T13:59:41;101296.91;;;23.37;58.11
60725;BME280;59881;36.722;-4.462;2022-10-14T14:02:16;101290.19;;;23.33;57.83
60725;BME280;59881;36.722;-4.462;2022-10-14T14:04:48;101295.41;;;23.26;58.10
60725;BME280;59881;36.722;-4.462;2022-10-14T14:07:19;100918.50;;;20.91;57.82
60725;BME280;59881;36.722;-4.462;2022-10-14T14:09:50;101286.22;;;23.12;57.84
60725;BME280;59881;36.722;-4.462;2022-10-14T14:12:20;101292.41;;;22.80;58.13
60725;BME280;59881;36.722;-4.462;2022-10-14T14:14:46;100842.06;;;20.46;58.20
60725;BME280;59881;36.722;-4.462;2022-10-14T14:17:17;100900.69;;;20.74;58.62
60725;BME280;59881;36.722;-4.462;2022-10-14T14:19:45;101139.81;;;22.18;58.45
60725;BME280;59881;36.722;-4.462;2022-10-14T14:22:29;101350.72;;;23.12;58.73
60725;BME280;59881;36.722;-4.462;2022-10-14T14:27:49;101266.22;;;23.07;58.06
60725;BME280;59881;36.722;-4.462;2022-10-14T14:30:35;101274.28;;;23.23;58.73
60725;BME280;59881;36.722;-4.462;2022-10-14T14:33:13;101384.31;;;23.17;58.89
60725;BME280;59881;36.722;-4.462;2022-10-14T14:35:42;101209.16;;;22.72;58.95
60725;BME280;59881;36.722;-4.462;2022-10-14T14:38:31;100956.53;;;21.11;58.84
60725;BME280;59881;36.722;-4.462;2022-10-14T14:41:23;101267.22;;;22.98;59.13
60725;BME280;59881;36.722;-4.462;2022-10-14T14:43:49;100779.03;;;20.01;59.31
60725;BME280;59881;36.722;-4.462;2022-10-14T14:46:25;100608.75;;;19.00;59.50
60725;BME280;59881;36.722;-4.462;2022-10-14T14:48:53;101262.53;;;23.00;59.80
60725;BME280;59881;36.722;-4.462;2022-10-14T14:51:20;100545.13;;;18.17;60.05
60725;BME280;59881;36.722;-4.462;2022-10-14T14:53:50;101175.75;;;22.42;59.86